createdAt,value
2022-07-30T00:00:23.814Z,15.74
2022-07-30T00:02:52.579Z,15.72
2022-07-30T00:05:19.570Z,15.66
2022-07-30T00:07:46.362Z,15.65
2022-07-30T00:10:13.207Z,15.66
2022-07-30T00:12:39.932Z,15.61
2022-07-30T00:15:07.466Z,15.61
2022-07-30T00:17:34.248Z,15.55
2022-07-30T00:20:01.285Z,15.47
2022-07-30T00:22:30.865Z,15.51
2022-07-30T00:24:57.726Z,15.63
2022-07-30T00:27:24.595Z,15.63
2022-07-30T00:29:51.299Z,15.65
2022-07-30T00:32:18.045Z,15.70
2022-07-30T00:34:44.880Z,15.65
2022-07-30T00:37:11.535Z,15.66
2022-07-30T00:39:38.291Z,15.60
2022-07-30T00:42:05.090Z,15.57
2022-07-30T00:44:31.902Z,15.61
2022-07-30T00:46:59.335Z,15.61
2022-07-30T00:49:26.970Z,15.60
2022-07-30T00:51:54.106Z,15.56
2022-07-30T00:54:21.571Z,15.53
2022-07-30T00:56:49.070Z,15.50
2022-07-30T00:59:16.161Z,15.38
2022-07-30T01:01:42.912Z,15.38
2022-07-30T01:04:14.084Z,15.35
2022-07-30T01:06:40.863Z,15.27
2022-07-30T01:09:08.342Z,15.19
2022-07-30T01:11:40.170Z,15.27
2022-07-30T01:14:08.180Z,15.25
2022-07-30T01:16:36.520Z,15.24
2022-07-30T01:19:26.334Z,15.25
2022-07-30T01:22:06.969Z,15.23
2022-07-30T01:24:36.860Z,15.19
2022-07-30T01:27:04.673Z,15.21
2022-07-30T01:29:33.835Z,15.19
2022-07-30T01:32:04.711Z,15.14
2022-07-30T01:34:33.996Z,15.20
2022-07-30T01:37:02.892Z,15.17
2022-07-30T01:39:30.701Z,15.09
2022-07-30T01:41:58.888Z,15.06
2022-07-30T01:44:27.311Z,15.07
2022-07-30T01:46:55.889Z,15.11
2022-07-30T01:49:26.025Z,15.07
2022-07-30T01:51:54.899Z,15.06
2022-07-30T01:54:25.508Z,15.03
2022-07-30T01:56:55.401Z,15.05
2022-07-30T01:59:25.060Z,15.04
2022-07-30T02:01:52.810Z,15.03
2022-07-30T02:04:19.936Z,15.06
2022-07-30T02:07:11.296Z,14.98
2022-07-30T02:09:47.362Z,15.00
2022-07-30T02:12:30.398Z,14.98
2022-07-30T02:15:20.709Z,14.97
2022-07-30T02:18:01.871Z,14.95
2022-07-30T02:20:32.104Z,14.92
2022-07-30T02:23:09.290Z,14.89
2022-07-30T02:25:42.208Z,14.96
2022-07-30T02:28:13.007Z,14.95
2022-07-30T02:30:52.697Z,14.96
2022-07-30T02:33:28.660Z,14.87
2022-07-30T02:35:57.051Z,14.93
2022-07-30T02:38:28.016Z,14.83
2022-07-30T02:40:58.258Z,14.86
2022-07-30T02:43:26.726Z,14.81
2022-07-30T02:45:53.939Z,14.73
2022-07-30T02:48:34.340Z,14.67
2022-07-30T02:51:04.238Z,14.68
2022-07-30T02:53:32.864Z,14.64
2022-07-30T02:56:01.959Z,14.60
2022-07-30T02:58:29.380Z,14.60
2022-07-30T03:00:57.632Z,14.60
2022-07-30T03:03:29.132Z,14.56
2022-07-30T03:05:57.593Z,14.58
2022-07-30T03:08:27.810Z,14.55
2022-07-30T03:10:56.311Z,14.58
2022-07-30T03:13:25.130Z,14.62
2022-07-30T03:15:53.947Z,14.65
2022-07-30T03:18:22.182Z,14.67
2022-07-30T03:20:53.571Z,14.74
2022-07-30T03:23:21.350Z,14.81
2022-07-30T03:25:54.591Z,14.83
2022-07-30T03:28:23.608Z,14.87
2022-07-30T03:30:52.114Z,14.90
2022-07-30T03:33:20.237Z,14.92
2022-07-30T03:35:49.340Z,14.90
2022-07-30T03:38:16.979Z,14.91
2022-07-30T03:40:45.461Z,14.94
2022-07-30T03:43:32.316Z,14.91
2022-07-30T03:46:03.798Z,14.90
2022-07-30T03:48:35.319Z,14.93
2022-07-30T03:51:07.855Z,14.86
2022-07-30T03:53:35.103Z,14.94
2022-07-30T03:56:20.852Z,14.93
2022-07-30T03:58:53.598Z,14.90
2022-07-30T04:01:25.082Z,14.93
2022-07-30T04:03:55.222Z,14.94
2022-07-30T04:06:22.671Z,14.89
2022-07-30T04:08:49.371Z,14.88
2022-07-30T04:11:16.157Z,14.91
2022-07-30T04:13:47.482Z,14.90
2022-07-30T04:16:39.549Z,14.94
2022-07-30T04:19:35.908Z,14.96
2022-07-30T04:22:03.272Z,14.91
2022-07-30T04:24:33.657Z,14.99
2022-07-30T04:27:02.445Z,14.98
2022-07-30T04:29:30.773Z,15.04
2022-07-30T04:31:58.159Z,15.06
2022-07-30T04:34:53.216Z,15.09
2022-07-30T04:37:38.981Z,15.02
2022-07-30T04:40:06.607Z,15.04
2022-07-30T04:42:33.347Z,15.03
2022-07-30T04:45:11.805Z,15.04
2022-07-30T04:47:49.854Z,15.02
2022-07-30T04:50:22.603Z,15.05
2022-07-30T04:52:51.136Z,15.03
2022-07-30T04:55:27.193Z,15.06
2022-07-30T04:57:55.104Z,15.11
2022-07-30T05:00:22.199Z,15.13
2022-07-30T05:02:52.016Z,15.23
2022-07-30T05:05:20.953Z,15.28
2022-07-30T05:07:48.782Z,15.21
2022-07-30T05:10:15.904Z,15.26
2022-07-30T05:12:42.915Z,15.26
2022-07-30T05:15:11.356Z,15.32
2022-07-30T05:17:38.259Z,15.40
2022-07-30T05:20:08.660Z,15.46
2022-07-30T05:22:58.656Z,15.58
2022-07-30T05:25:25.698Z,15.66
2022-07-30T05:27:58.285Z,15.74
2022-07-30T05:30:27.767Z,15.90
2022-07-30T05:32:57.786Z,15.87
2022-07-30T05:35:28.317Z,15.89
2022-07-30T05:37:55.391Z,15.96
2022-07-30T05:40:22.289Z,16.11
2022-07-30T05:43:07.441Z,16.15
2022-07-30T05:45:34.196Z,16.24
2022-07-30T05:48:00.965Z,16.34
2022-07-30T05:50:28.000Z,16.51
2022-07-30T05:52:56.107Z,16.65
2022-07-30T05:55:43.062Z,16.71
2022-07-30T05:58:29.938Z,16.72
2022-07-30T06:00:56.985Z,16.84
2022-07-30T06:03:27.172Z,17.01
2022-07-30T06:06:13.123Z,17.09
2022-07-30T06:08:40.008Z,17.18
2022-07-30T06:11:08.976Z,17.25
2022-07-30T06:13:38.535Z,17.43
2022-07-30T06:16:05.723Z,17.48
2022-07-30T06:18:34.332Z,17.61
2022-07-30T06:21:02.986Z,17.71
2022-07-30T06:23:59.271Z,17.82
2022-07-30T06:26:48.899Z,17.97
2022-07-30T06:29:19.518Z,18.14
2022-07-30T06:31:46.221Z,18.15
2022-07-30T06:34:12.957Z,18.28
2022-07-30T06:36:42.516Z,18.37
2022-07-30T06:39:14.894Z,18.57
2022-07-30T06:42:20.470Z,18.59
2022-07-30T06:45:06.456Z,18.66
2022-07-30T06:47:59.918Z,18.86
2022-07-30T06:50:29.588Z,18.89
2022-07-30T06:52:56.427Z,18.95
2022-07-30T06:55:25.703Z,19.15
2022-07-30T06:57:57.156Z,19.38
2022-07-30T07:00:44.889Z,19.49
2022-07-30T07:03:13.718Z,19.61
2022-07-30T07:05:40.647Z,19.71
2022-07-30T07:08:07.397Z,19.78
2022-07-30T07:10:38.680Z,19.89
2022-07-30T07:13:22.143Z,20.05
2022-07-30T07:15:49.431Z,20.17
2022-07-30T07:18:20.067Z,20.16
2022-07-30T07:20:52.091Z,20.22
2022-07-30T07:23:19.825Z,20.28
2022-07-30T07:25:49.310Z,20.44
2022-07-30T07:28:16.624Z,20.45
2022-07-30T07:30:44.616Z,20.46
2022-07-30T07:33:13.393Z,20.61
2022-07-30T07:35:49.526Z,20.80
2022-07-30T07:38:24.880Z,20.81
2022-07-30T07:40:53.630Z,20.88
2022-07-30T07:43:20.383Z,21.03
2022-07-30T07:45:47.175Z,21.21
2022-07-30T07:48:14.171Z,21.31
2022-07-30T07:50:59.761Z,21.45
2022-07-30T07:53:29.789Z,21.55
2022-07-30T07:55:57.385Z,21.71
2022-07-30T07:58:26.461Z,21.81
2022-07-30T08:00:56.903Z,21.99
2022-07-30T08:03:36.865Z,22.17
2022-07-30T08:06:18.839Z,22.37
2022-07-30T08:09:17.704Z,22.43
2022-07-30T08:12:04.164Z,22.45
2022-07-30T08:14:51.096Z,22.63
2022-07-30T08:17:55.989Z,22.75
2022-07-30T08:20:35.917Z,22.73
2022-07-30T08:23:02.733Z,22.87
2022-07-30T08:25:29.542Z,22.78
2022-07-30T08:27:56.495Z,22.81
2022-07-30T08:30:24.815Z,23.07
2022-07-30T08:32:51.598Z,23.14
2022-07-30T08:35:19.948Z,23.32
2022-07-30T08:37:46.768Z,23.42
2022-07-30T08:40:15.054Z,23.45
2022-07-30T08:42:52.721Z,23.65
2022-07-30T08:45:20.604Z,23.87
2022-07-30T08:48:16.704Z,23.95
2022-07-30T08:50:46.160Z,23.79
2022-07-30T08:53:48.712Z,23.67
2022-07-30T08:56:16.398Z,23.66
2022-07-30T08:58:46.057Z,23.75
2022-07-30T09:01:16.231Z,23.84
2022-07-30T09:03:44.050Z,24.00
2022-07-30T09:06:11.723Z,24.43
2022-07-30T09:08:38.483Z,24.09
2022-07-30T09:11:05.304Z,24.02
2022-07-30T09:13:35.282Z,24.34
2022-07-30T09:16:02.861Z,24.27
2022-07-30T09:18:34.121Z,23.93
2022-07-30T09:21:14.396Z,24.12
2022-07-30T09:23:41.634Z,24.14
2022-07-30T09:26:35.223Z,24.27
2022-07-30T09:29:28.661Z,24.48
2022-07-30T09:32:14.046Z,25.08
2022-07-30T09:35:12.976Z,25.39
2022-07-30T09:38:12.608Z,25.36
2022-07-30T09:41:00.118Z,25.08
2022-07-30T09:43:46.326Z,25.15
2022-07-30T09:46:20.798Z,25.31
2022-07-30T09:48:48.575Z,25.63
2022-07-30T09:51:16.154Z,25.55
2022-07-30T09:53:54.739Z,25.67
2022-07-30T09:56:25.960Z,26.23
2022-07-30T09:58:53.884Z,26.29
2022-07-30T10:01:24.112Z,26.50
2022-07-30T10:04:36.540Z,26.80
2022-07-30T10:07:25.329Z,26.13
2022-07-30T10:10:00.385Z,25.87
2022-07-30T10:12:28.923Z,26.50
2022-07-30T10:15:01.939Z,26.57
2022-07-30T10:17:34.344Z,26.47
2022-07-30T10:20:18.335Z,26.55
2022-07-30T10:23:09.312Z,26.85
2022-07-30T10:25:49.617Z,26.20
2022-07-30T10:28:53.443Z,26.28
2022-07-30T10:31:48.072Z,26.75
2022-07-30T10:34:07.759Z,26.52
2022-07-30T10:36:35.961Z,26.14
2022-07-30T10:39:03.531Z,26.43
2022-07-30T10:41:48.221Z,26.60
2022-07-30T10:44:27.354Z,26.73
2022-07-30T10:46:54.737Z,26.95
2022-07-30T10:49:25.735Z,27.10
2022-07-30T10:51:57.483Z,26.46
2022-07-30T10:54:33.592Z,25.89
2022-07-30T10:57:04.604Z,25.41
2022-07-30T10:59:58.695Z,25.90
2022-07-30T11:02:30.653Z,26.56
2022-07-30T11:05:17.310Z,26.59
2022-07-30T11:07:47.831Z,26.32
2022-07-30T11:10:43.938Z,26.07
2022-07-30T11:13:10.907Z,26.06
2022-07-30T11:16:04.143Z,26.16
2022-07-30T11:19:53.146Z,26.65
2022-07-30T11:22:22.912Z,26.46
2022-07-30T11:24:50.425Z,27.00
2022-07-30T11:27:36.938Z,27.28
2022-07-30T11:30:29.454Z,27.50
2022-07-30T11:33:05.238Z,27.03
2022-07-30T11:35:35.173Z,26.86
2022-07-30T11:38:18.719Z,26.08
2022-07-30T11:40:45.774Z,25.98
2022-07-30T11:43:34.923Z,26.65
2022-07-30T11:46:12.316Z,27.37
2022-07-30T11:48:57.467Z,27.80
2022-07-30T11:51:24.643Z,27.56
2022-07-30T11:54:07.163Z,27.03
2022-07-30T11:56:34.339Z,26.28
2022-07-30T11:59:08.306Z,26.57
2022-07-30T12:01:35.673Z,27.20
2022-07-30T12:04:04.918Z,27.48
2022-07-30T12:06:36.528Z,27.75
2022-07-30T12:09:03.505Z,27.16
2022-07-30T12:11:35.279Z,26.58
2022-07-30T12:14:02.667Z,26.70
2022-07-30T12:16:31.078Z,26.32
2022-07-30T12:19:09.527Z,25.79
2022-07-30T12:21:36.787Z,25.80
2022-07-30T12:24:10.006Z,26.10
2022-07-30T12:26:37.072Z,26.81
2022-07-30T12:29:06.829Z,27.33
2022-07-30T12:31:34.049Z,27.58
2022-07-30T12:34:05.110Z,27.02
2022-07-30T12:36:34.014Z,26.94
2022-07-30T12:39:02.752Z,27.48
2022-07-30T12:41:42.639Z,27.47
2022-07-30T12:44:10.131Z,26.93
2022-07-30T12:46:43.659Z,26.55
2022-07-30T12:49:22.453Z,26.46
2022-07-30T12:51:52.390Z,26.27
2022-07-30T12:54:27.541Z,26.52
2022-07-30T12:57:00.658Z,27.09
2022-07-30T12:59:28.466Z,26.62
2022-07-30T13:01:57.508Z,26.08
2022-07-30T13:04:24.752Z,25.63
2022-07-30T13:07:11.298Z,25.24
2022-07-30T13:09:39.973Z,25.19
2022-07-30T13:12:07.196Z,25.77
2022-07-30T13:14:34.384Z,26.22
2022-07-30T13:17:04.015Z,26.15
2022-07-30T13:19:31.261Z,25.91
2022-07-30T13:21:58.179Z,25.51
2022-07-30T13:24:24.866Z,25.17
2022-07-30T13:26:51.615Z,25.04
2022-07-30T13:29:18.356Z,24.84
2022-07-30T13:31:45.065Z,24.68
2022-07-30T13:34:12.602Z,24.69
2022-07-30T13:36:39.699Z,25.33
2022-07-30T13:39:06.514Z,25.68
2022-07-30T13:41:34.192Z,25.97
2022-07-30T13:44:00.875Z,25.71
2022-07-30T13:46:27.600Z,25.41
2022-07-30T13:48:55.042Z,25.23
2022-07-30T13:51:21.950Z,25.29
2022-07-30T13:53:48.655Z,25.90
2022-07-30T13:56:16.930Z,26.63
2022-07-30T13:58:46.939Z,26.70
2022-07-30T14:01:17.783Z,26.27
2022-07-30T14:03:49.962Z,26.34
2022-07-30T14:06:18.813Z,26.29
2022-07-30T14:08:45.617Z,26.19
2022-07-30T14:11:12.618Z,26.64
2022-07-30T14:13:39.569Z,27.20
2022-07-30T14:16:22.675Z,27.40
2022-07-30T14:18:53.333Z,27.57
2022-07-30T14:21:20.027Z,27.83
2022-07-30T14:23:46.800Z,27.70
2022-07-30T14:26:14.184Z,27.36
2022-07-30T14:28:40.917Z,27.52
2022-07-30T14:31:07.757Z,27.43
2022-07-30T14:33:34.436Z,27.01
2022-07-30T14:36:01.143Z,27.12
2022-07-30T14:38:27.891Z,27.38
2022-07-30T14:40:54.574Z,27.48
2022-07-30T14:43:21.306Z,27.59
2022-07-30T14:45:50.768Z,27.35
2022-07-30T14:48:17.698Z,27.39
2022-07-30T14:51:11.791Z,27.54
2022-07-30T14:53:31.997Z,27.51
2022-07-30T14:55:58.764Z,27.07
2022-07-30T14:58:25.826Z,26.38
2022-07-30T15:00:52.871Z,26.08
2022-07-30T15:03:20.209Z,26.21
2022-07-30T15:05:52.096Z,26.46
2022-07-30T15:08:19.526Z,26.69
2022-07-30T15:10:46.262Z,26.69
2022-07-30T15:13:12.940Z,26.68
2022-07-30T15:15:41.346Z,26.76
2022-07-30T15:18:10.856Z,26.73
2022-07-30T15:20:37.644Z,26.67
2022-07-30T15:23:04.457Z,26.46
2022-07-30T15:25:32.472Z,26.42
2022-07-30T15:27:59.231Z,26.45
2022-07-30T15:30:25.966Z,26.62
2022-07-30T15:32:54.350Z,26.84
2022-07-30T15:35:21.379Z,26.81
2022-07-30T15:37:48.293Z,26.85
2022-07-30T15:40:15.052Z,26.77
2022-07-30T15:42:42.770Z,26.66
2022-07-30T15:45:18.295Z,26.52
2022-07-30T15:47:46.060Z,26.31
2022-07-30T15:50:13.393Z,26.38
2022-07-30T15:52:40.158Z,26.48
2022-07-30T15:55:07.355Z,26.54
2022-07-30T15:57:34.012Z,26.55
2022-07-30T16:00:00.927Z,26.51
2022-07-30T16:02:28.069Z,26.40
2022-07-30T16:04:54.858Z,26.26
2022-07-30T16:07:21.716Z,26.24
2022-07-30T16:09:48.394Z,26.16
2022-07-30T16:12:15.055Z,26.08
2022-07-30T16:14:41.730Z,26.20
2022-07-30T16:17:13.692Z,26.26
2022-07-30T16:19:44.993Z,26.34
2022-07-30T16:22:12.465Z,26.31
2022-07-30T16:24:48.832Z,26.10
2022-07-30T16:27:17.259Z,25.76
2022-07-30T16:29:43.967Z,25.46
2022-07-30T16:32:10.840Z,25.29
2022-07-30T16:34:37.659Z,25.19
2022-07-30T16:37:04.572Z,25.10
2022-07-30T16:39:31.861Z,25.07
2022-07-30T16:41:58.607Z,24.95
2022-07-30T16:44:27.076Z,24.96
2022-07-30T16:46:53.964Z,25.08
2022-07-30T16:49:20.726Z,25.12
2022-07-30T16:51:47.510Z,25.17
2022-07-30T16:54:14.179Z,25.22
2022-07-30T16:56:40.885Z,25.21
2022-07-30T16:59:11.829Z,25.21
2022-07-30T17:01:40.431Z,25.21
2022-07-30T17:04:07.134Z,25.15
2022-07-30T17:06:34.001Z,25.09
2022-07-30T17:09:00.623Z,25.04
2022-07-30T17:11:47.441Z,25.03
2022-07-30T17:14:14.882Z,25.01
2022-07-30T17:16:41.859Z,25.02
2022-07-30T17:19:09.289Z,24.97
2022-07-30T17:21:38.071Z,24.81
2022-07-30T17:24:11.097Z,24.70
2022-07-30T17:26:40.485Z,24.59
2022-07-30T17:29:10.776Z,24.58
2022-07-30T17:31:43.269Z,24.48
2022-07-30T17:34:10.882Z,24.41
2022-07-30T17:36:38.775Z,24.22
2022-07-30T17:39:05.993Z,24.05
2022-07-30T17:41:32.934Z,23.90
2022-07-30T17:43:59.828Z,23.79
2022-07-30T17:46:27.194Z,23.67
2022-07-30T17:48:54.200Z,23.60
2022-07-30T17:51:20.939Z,23.52
2022-07-30T17:53:47.583Z,23.48
2022-07-30T17:56:26.666Z,23.42
2022-07-30T17:58:54.194Z,23.31
2022-07-30T18:01:21.026Z,23.24
2022-07-30T18:03:47.718Z,23.18
2022-07-30T18:06:14.400Z,23.09
2022-07-30T18:08:41.083Z,23.10
2022-07-30T18:11:10.665Z,23.09
2022-07-30T18:13:40.271Z,23.02
2022-07-30T18:16:08.324Z,22.95
2022-07-30T18:18:35.044Z,22.88
2022-07-30T18:21:01.976Z,22.84
2022-07-30T18:23:34.993Z,22.75
2022-07-30T18:26:02.015Z,22.63
2022-07-30T18:28:29.247Z,22.49
2022-07-30T18:30:56.022Z,22.46
2022-07-30T18:33:23.148Z,22.35
2022-07-30T18:35:49.979Z,22.24
2022-07-30T18:38:16.776Z,22.16
2022-07-30T18:40:44.978Z,22.12
2022-07-30T18:43:11.652Z,22.05
2022-07-30T18:45:38.376Z,22.00
2022-07-30T18:48:05.478Z,21.97
2022-07-30T18:50:32.966Z,21.93
2022-07-30T18:53:00.735Z,21.85
2022-07-30T18:55:41.832Z,21.76
2022-07-30T18:58:08.497Z,21.73
2022-07-30T19:00:35.836Z,21.69
2022-07-30T19:03:02.891Z,21.64
2022-07-30T19:05:29.805Z,21.51
2022-07-30T19:07:58.293Z,21.51
2022-07-30T19:10:26.622Z,21.46
2022-07-30T19:12:54.505Z,21.39
2022-07-30T19:15:21.481Z,21.31
2022-07-30T19:17:51.818Z,21.20
2022-07-30T19:20:19.575Z,20.98
2022-07-30T19:22:46.937Z,20.80
2022-07-30T19:25:13.926Z,20.70
2022-07-30T19:27:40.689Z,20.60
2022-07-30T19:30:07.942Z,20.52
2022-07-30T19:32:34.611Z,20.49
2022-07-30T19:35:01.320Z,20.44
2022-07-30T19:37:28.016Z,20.40
2022-07-30T19:40:05.368Z,20.38
2022-07-30T19:42:33.971Z,20.34
2022-07-30T19:45:11.160Z,20.34
2022-07-30T19:47:39.701Z,20.36
2022-07-30T19:50:07.644Z,20.34
2022-07-30T19:52:36.264Z,20.32
2022-07-30T19:55:03.940Z,20.25
2022-07-30T19:57:52.882Z,20.25
2022-07-30T20:00:25.131Z,20.29
2022-07-30T20:02:55.646Z,20.27
2022-07-30T20:05:25.264Z,20.32
2022-07-30T20:07:57.369Z,20.34
2022-07-30T20:10:24.787Z,20.32
2022-07-30T20:12:52.539Z,20.27
2022-07-30T20:15:20.084Z,20.26
2022-07-30T20:17:47.162Z,20.20
2022-07-30T20:20:15.769Z,20.11
2022-07-30T20:22:43.343Z,20.04
2022-07-30T20:25:11.224Z,19.99
2022-07-30T20:27:40.579Z,19.89
2022-07-30T20:30:09.305Z,19.73
2022-07-30T20:32:37.772Z,19.63
2022-07-30T20:35:07.474Z,19.54
2022-07-30T20:37:40.256Z,19.47
2022-07-30T20:40:21.711Z,19.48
2022-07-30T20:42:49.994Z,19.45
2022-07-30T20:45:16.850Z,19.47
2022-07-30T20:47:52.427Z,19.44
2022-07-30T20:50:30.900Z,19.42
2022-07-30T20:52:58.764Z,19.41
2022-07-30T20:55:26.590Z,19.39
2022-07-30T20:58:00.271Z,19.26
2022-07-30T21:00:33.965Z,19.22
2022-07-30T21:03:03.212Z,19.14
2022-07-30T21:05:31.847Z,19.15
2022-07-30T21:07:58.814Z,19.12
2022-07-30T21:10:25.552Z,19.13
2022-07-30T21:12:56.444Z,19.11
2022-07-30T21:15:25.334Z,19.04
2022-07-30T21:17:53.251Z,18.90
2022-07-30T21:20:27.433Z,18.88
2022-07-30T21:22:55.965Z,18.82
2022-07-30T21:25:23.524Z,18.74
2022-07-30T21:28:02.705Z,18.71
2022-07-30T21:30:30.928Z,18.64
2022-07-30T21:32:57.839Z,18.65
2022-07-30T21:35:24.942Z,18.59
2022-07-30T21:37:58.349Z,18.54
2022-07-30T21:40:25.168Z,18.48
2022-07-30T21:42:51.880Z,18.46
2022-07-30T21:45:19.890Z,18.44
2022-07-30T21:47:47.525Z,18.39
2022-07-30T21:50:18.767Z,18.42
2022-07-30T21:52:47.559Z,18.36
2022-07-30T21:55:14.310Z,18.30
2022-07-30T21:57:42.182Z,18.14
2022-07-30T22:00:14.996Z,17.98
2022-07-30T22:02:52.757Z,17.79
2022-07-30T22:05:20.172Z,17.74
2022-07-30T22:07:50.098Z,17.68
2022-07-30T22:10:21.295Z,17.61
2022-07-30T22:12:48.698Z,17.47
2022-07-30T22:15:15.499Z,17.37
2022-07-30T22:17:58.346Z,17.28
2022-07-30T22:20:29.046Z,17.29
2022-07-30T22:22:57.599Z,17.30
2022-07-30T22:25:43.748Z,17.26
2022-07-30T22:28:12.088Z,17.24
2022-07-30T22:30:40.811Z,17.21
2022-07-30T22:33:15.162Z,17.18
2022-07-30T22:35:46.713Z,17.18
2022-07-30T22:38:17.361Z,17.10
2022-07-30T22:40:46.465Z,17.06
2022-07-30T22:43:13.984Z,17.04
2022-07-30T22:48:29.455Z,17.03
2022-07-30T22:50:56.194Z,17.03
2022-07-30T22:54:03.588Z,17.00
2022-07-30T22:56:15.505Z,17.07
2022-07-30T22:58:42.839Z,17.00
2022-07-30T23:01:09.626Z,17.00
2022-07-30T23:03:37.778Z,16.88
2022-07-30T23:06:04.535Z,16.82
2022-07-30T23:08:33.310Z,16.55
2022-07-30T23:11:00.296Z,16.42
2022-07-30T23:12:30.392Z,17.06
2022-07-30T23:13:28.676Z,16.36
2022-07-30T23:15:55.655Z,16.42
2022-07-30T23:18:22.331Z,16.47
2022-07-30T23:20:49.009Z,16.48
2022-07-30T23:23:15.694Z,16.46
2022-07-30T23:25:42.374Z,16.41
2022-07-30T23:28:09.049Z,16.46
2022-07-30T23:30:35.853Z,16.45
2022-07-30T23:33:02.947Z,16.45
2022-07-30T23:35:30.378Z,16.38
2022-07-30T23:37:57.396Z,16.36
2022-07-30T23:40:24.171Z,16.38
2022-07-30T23:42:51.916Z,16.42
2022-07-30T23:45:19.024Z,16.44
2022-07-30T23:48:00.800Z,16.47
2022-07-30T23:50:29.794Z,16.49
2022-07-30T23:52:56.463Z,16.49
2022-07-30T23:55:23.320Z,16.46
2022-07-30T23:57:49.986Z,16.42
